Langen, Germany

11:31 PM CEST on March 31, 2015 (GMT +0200)
IHESSENL2 | | Change Station
CLOSE
Current Station
Personal Weather Station
Location: Langen, Hessen
Elevation: 460 ft
Nearby Weather Stations

Elev 460 ft 49.99 °N, 8.67 °E | Updated 2 minutes ago

Rain
Rain
40.1 °F
Feels Like 37 °F
N
4.0
Wind Variable Wind from North
Gusts 4.0 mph

Today
High -- | Low -- °F
--% Chance of Precip.
Yesterday
High -- | Low -- °F
Precip. -- in
7:05 AM 7:54 PM
Waxing Gibbous, 89% visible
Pressure 29.83 in
Visibility 6.2 miles
Clouds Few 1800 ft
Scattered Clouds 6000 ft
Mostly Cloudy 11000 ft
Windchill 37 °F
Dew Point 34 °F
Humidity 87%
Rainfall 0.37 in
Snow Depth Not available.
UV 0 out of 12
Pollen Not available.
Air Quality Not available.
Flu Activity Not available.
METAR EDDF 312120Z 24012KT 9999 FEW018TCU SCT060 BKN110 05/03 Q1010 TEMPO 27020G35KT

More Conditions Fewer Conditions

Pressure 29.83 in
Visibility 6.2 miles
Clouds Few 1800 ft
Scattered Clouds 6000 ft
Mostly Cloudy 11000 ft
Windchill 37 °F
Dew Point 34 °F
Humidity 87%
Rainfall 0.37 in
Snow Depth Not available.
UV 0 out of 12
Pollen Not available.
Air Quality Not available.
Flu Activity Not available.
METAR EDDF 312120Z 24012KT 9999 FEW018TCU SCT060 BKN110 05/03 Q1010 TEMPO 27020G35KT

More Conditions Fewer Conditions

10-Day Weather Forecast

Almanac

Astronomy

Mar. 31, 2015 Rise Set
Actual Time
Civil Twilight
Nautical Twilight
Astronomical Twilight
Moon
Length of Visible Light
Length of Day
Tomorrow will be .
, % of the Moon is Illuminated

Today's Extremes

Country Highs Country Lows

Community

WunderPhotos

Upload Photos

1,809,842 photos uploaded!

WunderBlogs® & News

Nearby

Air Quality

  Air Quality AQ Index Pollutant
Not available.

Snow Depth

Station Depth Elevation

Earthquake Activity

City Distance Mag. Time & Date
Minimum magnitude displayed is 2.5.

Coastal Water Temperatures

Place Temperature

Stations

Nearby Weather Stations

Station Location Temp. Windchill Dew Point Humidity Wind Precip. Elev Updated Type